Time;durP1;ratioP1;P1;durP2;ratioP2;P2;SDS_P1;SDS_P2;PMS_P1;PMS_P2;Temp;Humidity;BMP_temperature;BMP_pressure;BME280_temperature;BME280_humidity;BME280_pressure;Samples;Min_cycle;Max_cycle;Signal;HPM_P1;HPM_P2
2023/03/19 00:00:55;;;;;;;87.63;84.13;;;9.80;99.90;;;;;;5022931;28;20460;-81
2023/03/19 00:03:24;;;;;;;70.83;67.73;;;9.70;99.90;;;;;;5036542;28;20478;-79
2023/03/19 00:05:55;;;;;;;73.23;70.17;;;9.60;99.90;;;;;;5038729;28;20462;-78
2023/03/19 00:08:22;;;;;;;96.80;93.03;;;9.60;99.90;;;;;;5036744;28;20480;-79
2023/03/19 00:10:50;;;;;;;118.30;113.80;;;9.40;99.90;;;;;;5036217;28;20452;-79
2023/03/19 00:13:17;;;;;;;107.20;102.53;;;9.40;99.90;;;;;;5035513;28;20861;-79
2023/03/19 00:15:47;;;;;;;139.07;133.77;;;9.30;99.90;;;;;;5034965;28;20456;-78
2023/03/19 00:18:15;;;;;;;132.50;127.50;;;9.20;99.90;;;;;;5020019;28;20479;-79
2023/03/19 00:20:43;;;;;;;157.00;151.40;;;9.10;99.90;;;;;;5015858;28;20475;-78
2023/03/19 00:23:12;;;;;;;183.47;174.87;;;9.00;99.90;;;;;;5030375;28;20460;-78
2023/03/19 00:25:39;;;;;;;187.77;181.03;;;9.00;99.90;;;;;;5036102;28;21024;-79
2023/03/19 00:28:06;;;;;;;193.03;186.07;;;8.90;99.90;;;;;;5016590;28;20691;-79
2023/03/19 00:30:33;;;;;;;243.17;233.90;;;8.80;99.90;;;;;;5035740;28;20542;-78
2023/03/19 00:33:04;;;;;;;219.87;211.70;;;8.80;99.90;;;;;;5034191;28;20833;-79
2023/03/19 00:35:31;;;;;;;205.93;198.57;;;8.50;99.90;;;;;;5024975;28;20496;-78
2023/03/19 00:37:58;;;;;;;215.80;208.07;;;8.50;99.90;;;;;;5050261;28;20529;-78
2023/03/19 00:40:25;;;;;;;248.17;239.03;;;8.30;99.90;;;;;;5050443;28;20452;-78
2023/03/19 00:43:00;;;;;;;286.30;275.47;;;8.10;99.90;;;;;;5049440;28;20447;-78
2023/03/19 00:45:29;;;;;;;291.27;279.97;;;8.10;99.90;;;;;;5025650;28;20478;-78
2023/03/19 00:47:57;;;;;;;320.00;307.27;;;7.90;99.90;;;;;;5016481;28;20530;-79
2023/03/19 00:50:25;;;;;;;402.73;385.57;;;7.80;99.90;;;;;;5034872;28;20474;-79
2023/03/19 00:52:53;;;;;;;475.23;453.33;;;7.70;99.90;;;;;;5033747;28;20452;-78
2023/03/19 00:55:24;;;;;;;582.57;551.57;;;7.70;99.90;;;;;;5034609;28;20859;-78
2023/03/19 00:57:51;;;;;;;549.13;521.33;;;7.60;99.90;;;;;;5033521;28;21011;-78
2023/03/19 01:00:21;;;;;;;556.53;528.73;;;7.60;99.90;;;;;;5034467;28;20479;-78
2023/03/19 01:02:48;;;;;;;585.90;555.83;;;7.50;99.90;;;;;;5034136;28;20518;-79
2023/03/19 01:05:16;;;;;;;597.80;566.20;;;7.50;99.90;;;;;;5034428;28;20444;-78
2023/03/19 01:07:44;;;;;;;592.87;562.00;;;7.40;99.90;;;;;;5022033;28;20473;-78
2023/03/19 01:10:12;;;;;;;643.27;609.17;;;7.30;99.90;;;;;;5014587;28;20456;-78
2023/03/19 01:12:39;;;;;;;694.73;653.97;;;7.40;99.90;;;;;;5033606;28;20449;-78
2023/03/19 01:15:07;;;;;;;712.57;667.23;;;7.50;99.90;;;;;;5033948;28;20480;-78
2023/03/19 01:17:34;;;;;;;680.87;639.07;;;7.50;99.90;;;;;;5006231;28;21269;-78
2023/03/19 01:20:01;;;;;;;631.83;596.63;;;7.50;99.90;;;;;;5014490;28;20465;-78
2023/03/19 01:22:28;;;;;;;617.70;584.00;;;7.50;99.90;;;;;;5028089;28;20550;-78
2023/03/19 01:24:57;;;;;;;619.40;586.00;;;7.50;99.90;;;;;;5034173;28;20453;-78
2023/03/19 01:27:26;;;;;;;633.63;599.37;;;7.50;99.90;;;;;;5014591;28;20513;-78
2023/03/19 01:29:57;;;;;;;687.50;647.00;;;7.50;99.90;;;;;;5014422;28;20453;-78
2023/03/19 01:32:24;;;;;;;671.70;631.43;;;7.40;99.90;;;;;;5026180;28;20980;-78
2023/03/19 01:34:52;;;;;;;681.40;639.67;;;7.30;99.90;;;;;;5033641;28;20901;-78
2023/03/19 01:37:19;;;;;;;692.17;651.00;;;7.20;99.90;;;;;;5031467;28;20503;-78
2023/03/19 01:39:46;;;;;;;666.97;628.67;;;7.20;99.90;;;;;;5033877;28;20559;-78
2023/03/19 01:42:15;;;;;;;578.53;549.13;;;7.10;99.90;;;;;;5023001;28;20453;-78
2023/03/19 01:44:43;;;;;;;587.70;558.30;;;7.00;99.90;;;;;;4996604;28;20870;-78
2023/03/19 01:47:26;;;;;;;621.13;590.07;;;6.90;99.90;;;;;;5022968;28;20452;-79
2023/03/19 01:49:55;;;;;;;667.13;632.13;;;6.90;99.90;;;;;;5033602;28;20460;-78
2023/03/19 01:52:26;;;;;;;692.27;654.57;;;6.80;99.90;;;;;;5023236;28;20457;-79
2023/03/19 01:54:55;;;;;;;748.87;703.07;;;6.70;99.90;;;;;;5013735;28;20560;-79
2023/03/19 01:57:26;;;;;;;780.37;729.57;;;6.90;99.90;;;;;;5003225;28;20457;-78
2023/03/19 01:59:57;;;;;;;787.80;735.63;;;7.10;99.90;;;;;;5033311;28;20456;-78
2023/03/19 02:02:29;;;;;;;745.37;694.07;;;7.20;99.90;;;;;;5030584;28;20452;-78
2023/03/19 02:05:00;;;;;;;710.87;664.03;;;7.40;99.90;;;;;;5025779;28;20456;-78
2023/03/19 02:07:29;;;;;;;685.20;641.53;;;7.40;99.90;;;;;;5020027;28;20470;-78
2023/03/19 02:10:00;;;;;;;666.20;627.50;;;7.50;99.90;;;;;;5050722;28;20899;-78
2023/03/19 02:12:29;;;;;;;641.93;604.77;;;7.60;99.90;;;;;;5053131;28;20513;-78
2023/03/19 02:14:58;;;;;;;588.93;555.73;;;7.60;99.90;;;;;;5043954;28;20489;-78
2023/03/19 02:17:29;;;;;;;526.07;498.47;;;7.70;99.90;;;;;;5032878;28;20514;-78
2023/03/19 02:20:01;;;;;;;502.67;477.37;;;7.80;99.90;;;;;;5033147;28;20845;-78
2023/03/19 02:22:31;;;;;;;486.87;463.80;;;7.90;99.90;;;;;;5031255;28;20460;-78
2023/03/19 02:25:09;;;;;;;465.73;443.67;;;7.90;99.90;;;;;;5031745;28;20906;-78
2023/03/19 02:27:45;;;;;;;444.07;423.93;;;8.00;99.90;;;;;;5030990;28;20472;-79
2023/03/19 02:30:25;;;;;;;441.43;421.60;;;8.00;99.90;;;;;;5032697;28;20542;-78
2023/03/19 02:32:53;;;;;;;458.00;436.67;;;8.20;99.90;;;;;;5073666;22;20490;-78
2023/03/19 02:35:20;;;;;;;464.03;442.70;;;8.40;99.90;;;;;;5067705;28;21023;-78
2023/03/19 02:37:47;;;;;;;461.27;440.10;;;8.50;99.90;;;;;;5061791;28;20894;-78
2023/03/19 02:40:19;;;;;;;458.20;437.07;;;8.70;99.90;;;;;;5047102;28;20451;-78
2023/03/19 02:42:48;;;;;;;440.97;421.27;;;8.90;99.90;;;;;;5037910;28;20456;-78
2023/03/19 02:45:18;;;;;;;408.73;391.27;;;9.00;99.90;;;;;;5035447;28;21023;-78
2023/03/19 02:47:45;;;;;;;336.93;322.90;;;9.20;99.90;;;;;;5040621;28;20483;-78
2023/03/19 02:50:12;;;;;;;251.50;241.00;;;9.40;99.90;;;;;;5041709;28;20522;-78
2023/03/19 02:52:39;;;;;;;184.00;177.30;;;9.60;99.90;;;;;;5052328;28;20452;-78
2023/03/19 02:55:08;;;;;;;152.57;146.50;;;9.80;99.90;;;;;;5050330;28;20474;-78
2023/03/19 02:57:36;;;;;;;104.00;100.30;;;9.90;99.90;;;;;;5051262;28;20472;-77
2023/03/19 03:00:11;;;;;;;74.30;71.40;;;10.00;99.90;;;;;;5031184;28;20480;-78
2023/03/19 03:02:39;;;;;;;50.90;48.17;;;10.10;99.90;;;;;;5030617;28;20865;-77
2023/03/19 03:05:10;;;;;;;39.47;37.77;;;10.10;99.90;;;;;;5048316;28;20450;-78
2023/03/19 03:07:37;;;;;;;26.97;25.57;;;10.20;99.90;;;;;;5051633;28;20471;-78
2023/03/19 03:10:11;;;;;;;21.70;20.07;;;10.20;99.90;;;;;;5051617;28;20457;-78
2023/03/19 03:12:38;;;;;;;18.33;17.00;;;10.30;99.90;;;;;;5051789;28;20469;-78
2023/03/19 03:15:08;;;;;;;14.70;13.70;;;10.30;99.90;;;;;;5042019;28;20541;-78
2023/03/19 03:17:37;;;;;;;12.73;11.70;;;10.30;99.90;;;;;;5040312;28;20595;-78
2023/03/19 03:20:05;;;;;;;11.67;10.70;;;10.20;99.90;;;;;;5048113;28;20459;-78
2023/03/19 03:22:33;;;;;;;11.50;10.60;;;10.10;99.90;;;;;;5043438;28;20951;-78
2023/03/19 03:25:01;;;;;;;10.23;9.33;;;10.10;99.90;;;;;;5041014;28;20443;-78
2023/03/19 03:27:28;;;;;;;10.00;9.10;;;10.20;99.90;;;;;;5052167;28;20451;-78
2023/03/19 03:29:55;;;;;;;9.20;8.30;;;10.20;99.90;;;;;;5051883;28;20447;-78
2023/03/19 03:32:24;;;;;;;8.70;7.90;;;10.20;99.90;;;;;;5051586;28;20513;-78
2023/03/19 03:34:51;;;;;;;7.33;6.27;;;10.10;99.90;;;;;;5043271;28;20479;-78
2023/03/19 03:37:18;;;;;;;11.47;6.23;;;10.20;99.90;;;;;;5050581;28;20455;-78
2023/03/19 03:39:47;;;;;;;7.23;6.10;;;10.10;99.90;;;;;;5045767;28;20904;-78
2023/03/19 03:42:14;;;;;;;8.63;6.00;;;10.10;99.90;;;;;;5033185;28;20452;-78
2023/03/19 03:44:41;;;;;;;9.13;7.07;;;10.00;99.90;;;;;;5043367;28;20716;-78
2023/03/19 03:47:09;;;;;;;8.43;6.93;;;9.90;99.90;;;;;;5046108;28;20502;-78
2023/03/19 03:49:38;;;;;;;9.17;8.40;;;9.80;99.90;;;;;;5044127;28;20471;-78
2023/03/19 03:52:07;;;;;;;10.30;9.50;;;9.80;99.90;;;;;;5046162;28;20455;-78
2023/03/19 03:54:34;;;;;;;11.57;10.67;;;9.70;99.90;;;;;;5043721;28;20993;-78
2023/03/19 03:57:01;;;;;;;12.90;12.00;;;9.90;99.90;;;;;;5047466;28;20908;-77
2023/03/19 03:59:28;;;;;;;14.40;13.30;;;9.90;99.90;;;;;;5045680;28;21045;-77
2023/03/19 04:01:55;;;;;;;14.67;13.57;;;9.90;99.90;;;;;;5047281;28;20451;-77
2023/03/19 04:04:22;;;;;;;15.03;13.60;;;10.00;99.90;;;;;;5043045;28;20454;-78
2023/03/19 04:06:50;;;;;;;14.33;13.33;;;10.00;99.90;;;;;;5051286;28;20451;-78
2023/03/19 04:09:17;;;;;;;11.90;10.93;;;10.10;99.90;;;;;;5045873;28;20557;-77
2023/03/19 04:11:44;;;;;;;13.37;10.67;;;10.10;99.90;;;;;;5050554;28;20447;-78
2023/03/19 04:14:11;;;;;;;10.37;9.37;;;10.10;99.90;;;;;;5050173;28;20479;-78
2023/03/19 04:16:39;;;;;;;8.73;7.60;;;10.10;99.90;;;;;;5042092;28;20468;-77
2023/03/19 04:19:06;;;;;;;9.20;7.93;;;10.00;99.90;;;;;;5031427;28;20621;-78
2023/03/19 04:21:33;;;;;;;8.90;8.10;;;10.00;99.90;;;;;;5042748;28;20528;-78
2023/03/19 04:24:10;;;;;;;10.07;9.27;;;10.10;99.90;;;;;;5051428;28;20550;-77
2023/03/19 04:26:38;;;;;;;9.67;8.77;;;10.10;99.90;;;;;;5043830;28;20447;-77
2023/03/19 04:29:07;;;;;;;8.73;7.93;;;10.00;99.90;;;;;;5051179;28;20525;-77
2023/03/19 04:31:33;;;;;;;9.70;7.47;;;10.10;99.90;;;;;;5051114;28;20521;-77
2023/03/19 04:34:01;;;;;;;8.20;6.77;;;10.10;99.90;;;;;;5036930;28;20453;-77
2023/03/19 04:36:29;;;;;;;8.13;7.10;;;10.10;99.90;;;;;;5040764;28;20999;-77
2023/03/19 04:38:56;;;;;;;10.13;8.20;;;10.00;99.90;;;;;;5050159;28;20510;-78
2023/03/19 04:41:25;;;;;;;8.93;8.03;;;9.90;99.90;;;;;;5050907;28;20455;-77
2023/03/19 04:43:52;;;;;;;9.60;8.70;;;10.00;99.90;;;;;;5051575;28;20837;-77
2023/03/19 04:46:19;;;;;;;11.03;9.27;;;10.00;99.90;;;;;;5050752;28;20451;-78
2023/03/19 04:48:49;;;;;;;9.80;8.97;;;10.00;99.90;;;;;;5051460;28;20499;-77
2023/03/19 04:51:16;;;;;;;12.50;11.60;;;10.10;99.90;;;;;;5054532;28;20874;-78
2023/03/19 04:53:43;;;;;;;10.80;8.60;;;10.10;99.90;;;;;;5051000;28;20447;-77
2023/03/19 04:56:10;;;;;;;7.10;6.50;;;10.10;99.90;;;;;;5054012;28;20474;-77
2023/03/19 04:58:38;;;;;;;9.17;7.17;;;10.20;99.90;;;;;;5054107;28;20479;-77
2023/03/19 05:01:05;;;;;;;6.23;5.63;;;10.20;99.90;;;;;;5054000;28;20447;-78
2023/03/19 05:03:34;;;;;;;9.73;6.13;;;10.10;99.90;;;;;;5053034;28;20487;-78
2023/03/19 05:06:01;;;;;;;6.87;6.10;;;10.10;99.90;;;;;;5051141;28;20543;-78
2023/03/19 05:08:28;;;;;;;8.63;7.23;;;10.10;99.90;;;;;;5048856;28;20814;-78
2023/03/19 05:10:55;;;;;;;9.37;8.20;;;10.00;99.90;;;;;;5053851;28;20571;-78
2023/03/19 05:13:22;;;;;;;11.63;9.07;;;10.00;99.90;;;;;;5050606;28;20458;-78
2023/03/19 05:15:53;;;;;;;12.00;11.00;;;9.90;99.90;;;;;;5050057;28;20475;-77
2023/03/19 05:18:20;;;;;;;13.60;12.60;;;9.90;99.90;;;;;;5047326;28;20525;-78
2023/03/19 05:20:48;;;;;;;16.63;15.40;;;9.90;99.90;;;;;;5043934;28;20971;-77
2023/03/19 05:23:16;;;;;;;21.30;20.10;;;10.00;99.90;;;;;;5053852;28;20458;-78
2023/03/19 05:25:46;;;;;;;21.07;19.87;;;10.00;99.90;;;;;;5053808;28;21012;-78
2023/03/19 05:28:13;;;;;;;22.70;21.43;;;9.90;99.90;;;;;;5053849;28;20483;-78
2023/03/19 05:30:42;;;;;;;20.67;19.47;;;10.00;99.90;;;;;;5054103;28;20542;-78
2023/03/19 05:33:38;;;;;;;23.10;21.90;;;9.80;99.90;;;;;;5036851;28;20518;-78
2023/03/19 05:36:07;;;;;;;22.87;21.57;;;9.80;99.90;;;;;;5049686;28;20475;-78
2023/03/19 05:38:34;;;;;;;24.80;23.27;;;9.90;99.90;;;;;;5047899;28;20505;-77
2023/03/19 05:41:04;;;;;;;25.67;23.77;;;9.90;99.90;;;;;;5053440;28;20447;-79
2023/03/19 05:44:15;;;;;;;28.20;26.60;;;9.90;99.90;;;;;;5045267;28;20455;-78
2023/03/19 05:46:42;;;;;;;38.50;35.10;;;9.90;99.90;;;;;;5050579;28;20455;-78
2023/03/19 05:49:13;;;;;;;43.13;40.80;;;10.00;99.90;;;;;;5044563;28;20471;-77
2023/03/19 05:51:40;;;;;;;37.77;35.97;;;10.10;99.90;;;;;;5048295;28;20449;-77
2023/03/19 05:54:09;;;;;;;36.03;33.70;;;10.10;99.90;;;;;;5048540;28;20550;-78
2023/03/19 05:59:57;;;;;;;35.67;33.57;;;10.00;99.90;;;;;;5049070;28;21105;-77
2023/03/19 06:02:24;;;;;;;35.80;34.10;;;10.10;99.90;;;;;;5046965;28;20822;-77
2023/03/19 06:04:52;;;;;;;36.07;34.47;;;10.10;99.90;;;;;;5042952;28;20456;-77
2023/03/19 06:07:19;;;;;;;31.97;30.37;;;10.20;99.90;;;;;;5052774;28;20487;-77
2023/03/19 06:09:46;;;;;;;28.70;27.10;;;10.20;99.90;;;;;;5049377;28;20456;-77
2023/03/19 06:12:13;;;;;;;27.40;25.80;;;10.20;99.90;;;;;;5049479;28;20444;-78
2023/03/19 06:15:04;;;;;;;25.60;24.20;;;10.30;99.90;;;;;;5052647;28;20443;-77
2023/03/19 06:17:32;;;;;;;24.10;22.80;;;10.20;99.90;;;;;;5052843;28;20451;-77
2023/03/19 06:20:21;;;;;;;26.73;25.33;;;10.20;99.90;;;;;;5052232;28;20447;-78
2023/03/19 06:23:13;;;;;;;32.00;29.83;;;10.20;99.90;;;;;;5052963;28;20462;-77
2023/03/19 06:31:38;;;;;;;33.60;31.33;;;10.30;99.90;;;;;;5139372;22;21058;-75
2023/03/19 06:34:05;;;;;;;29.23;27.93;;;10.30;99.90;;;;;;5071872;28;20458;-75
2023/03/19 06:36:34;;;;;;;31.23;29.57;;;10.30;99.90;;;;;;5071857;28;20466;-74
2023/03/19 06:39:02;;;;;;;25.50;24.00;;;10.40;99.90;;;;;;5071274;28;21005;-76
2023/03/19 06:41:28;;;;;;;15.00;14.00;;;10.40;99.90;;;;;;5069410;28;20451;-75
2023/03/19 06:43:55;;;;;;;13.47;12.53;;;10.40;99.90;;;;;;5063153;28;20450;-75
2023/03/19 06:46:22;;;;;;;13.90;12.77;;;10.60;99.90;;;;;;5067641;28;20895;-75
2023/03/19 06:48:50;;;;;;;11.53;10.60;;;10.60;99.90;;;;;;5053637;28;20467;-76
2023/03/19 06:51:17;;;;;;;10.97;8.47;;;10.70;99.90;;;;;;5068680;28;20483;-75
2023/03/19 06:53:45;;;;;;;8.70;7.03;;;10.90;99.90;;;;;;5071694;28;20533;-75
2023/03/19 06:56:12;;;;;;;12.00;7.80;;;11.00;99.90;;;;;;5071628;28;20480;-75
2023/03/19 06:58:39;;;;;;;7.90;7.10;;;11.10;99.90;;;;;;5071776;28;21009;-75
2023/03/19 07:01:06;;;;;;;7.90;7.10;;;11.20;99.90;;;;;;5071190;28;20450;-76
2023/03/19 07:03:33;;;;;;;8.90;8.10;;;11.30;99.90;;;;;;5071244;28;20446;-75
2023/03/19 07:06:00;;;;;;;13.27;12.17;;;11.30;99.90;;;;;;5071370;28;21019;-75
2023/03/19 07:08:28;;;;;;;10.03;9.27;;;11.40;99.90;;;;;;5071035;28;20481;-75
2023/03/19 07:10:57;;;;;;;9.50;8.60;;;11.60;99.90;;;;;;5071936;28;20462;-75
2023/03/19 07:13:24;;;;;;;9.70;8.90;;;11.60;99.90;;;;;;5071438;28;20464;-75
2023/03/19 07:15:51;;;;;;;7.80;7.00;;;11.60;99.90;;;;;;5071146;28;20470;-75
2023/03/19 07:18:18;;;;;;;7.77;6.93;;;11.60;99.90;;;;;;5067808;28;20474;-75
2023/03/19 07:20:46;;;;;;;9.30;5.20;;;11.70;99.90;;;;;;5070505;28;20451;-75
2023/03/19 07:23:12;;;;;;;6.47;5.13;;;11.70;99.90;;;;;;5068787;28;20458;-75
2023/03/19 07:25:40;;;;;;;9.80;5.10;;;11.70;99.90;;;;;;5067327;28;20483;-76
2023/03/19 07:28:08;;;;;;;6.10;5.07;;;11.70;99.90;;;;;;5069609;28;20474;-76
2023/03/19 07:30:37;;;;;;;7.30;5.00;;;11.80;99.90;;;;;;5065055;28;20462;-76
2023/03/19 07:33:04;;;;;;;7.57;5.10;;;11.90;99.90;;;;;;5069526;28;20457;-76
2023/03/19 07:35:34;;;;;;;5.90;4.43;;;11.90;99.90;;;;;;5069472;28;20465;-75
2023/03/19 07:38:01;;;;;;;6.27;5.27;;;11.90;99.90;;;;;;5067272;28;20482;-76
2023/03/19 07:40:28;;;;;;;7.47;5.53;;;11.80;99.90;;;;;;5069528;28;20457;-76
2023/03/19 07:42:55;;;;;;;8.13;5.60;;;11.90;99.90;;;;;;5065334;28;20455;-75
2023/03/19 07:45:24;;;;;;;9.70;5.63;;;12.00;99.90;;;;;;5045026;28;20450;-75
2023/03/19 07:47:54;;;;;;;8.27;5.80;;;12.10;99.90;;;;;;5062403;28;20486;-76
2023/03/19 07:50:21;;;;;;;10.20;5.27;;;12.10;99.90;;;;;;5062498;28;20492;-76
2023/03/19 07:52:50;;;;;;;7.10;4.47;;;12.10;99.90;;;;;;5060163;28;20482;-76
2023/03/19 07:55:22;;;;;;;6.43;3.87;;;12.40;99.90;;;;;;5061740;28;20451;-76
2023/03/19 07:58:00;;;;;;;8.87;4.17;;;12.40;99.90;;;;;;5064303;28;20485;-76
2023/03/19 08:00:30;;;;;;;6.70;4.00;;;12.50;99.90;;;;;;5071547;28;20456;-76
2023/03/19 08:02:57;;;;;;;13.07;4.50;;;12.50;99.90;;;;;;5071254;28;20530;-75
2023/03/19 08:05:24;;;;;;;6.13;3.77;;;12.50;99.90;;;;;;5069291;28;20480;-75
2023/03/19 08:07:51;;;;;;;8.43;3.40;;;12.50;99.90;;;;;;5070288;28;20865;-75
2023/03/19 08:10:18;;;;;;;11.70;3.90;;;12.70;99.90;;;;;;5070452;28;20457;-76
2023/03/19 08:12:45;;;;;;;8.57;3.30;;;13.00;99.90;;;;;;5070379;28;20452;-75
2023/03/19 08:15:12;;;;;;;5.70;3.37;;;13.10;99.90;;;;;;5070220;28;20450;-75
2023/03/19 08:17:41;;;;;;;9.53;4.30;;;13.10;99.90;;;;;;5069811;28;20478;-76
2023/03/19 08:20:10;;;;;;;7.63;4.50;;;13.30;99.90;;;;;;5052710;28;20538;-76
2023/03/19 08:22:41;;;;;;;7.03;3.90;;;13.20;99.90;;;;;;5069000;28;20454;-79
2023/03/19 08:25:10;;;;;;;7.90;3.60;;;13.30;99.90;;;;;;5070531;28;20482;-75
2023/03/19 08:27:37;;;;;;;14.00;4.43;;;13.20;99.90;;;;;;5071274;28;20463;-75
2023/03/19 08:30:06;;;;;;;5.80;3.40;;;13.30;99.90;;;;;;5069944;28;20498;-76
2023/03/19 08:32:33;;;;;;;6.10;3.83;;;13.30;99.90;;;;;;5073286;28;20489;-76
2023/03/19 08:35:01;;;;;;;7.37;4.10;;;13.40;99.90;;;;;;5072604;28;20460;-76
2023/03/19 08:37:28;;;;;;;7.70;4.33;;;13.60;99.90;;;;;;5073400;28;20474;-76
2023/03/19 08:39:58;;;;;;;6.90;4.20;;;13.80;99.90;;;;;;5072442;28;20454;-76
2023/03/19 08:42:27;;;;;;;8.40;4.27;;;13.80;99.90;;;;;;5074116;28;20454;-76
2023/03/19 08:44:54;;;;;;;7.30;3.40;;;13.80;99.90;;;;;;5074267;28;20832;-77
2023/03/19 08:47:23;;;;;;;9.33;3.90;;;13.90;99.90;;;;;;5071360;28;20533;-76
2023/03/19 08:49:50;;;;;;;5.10;3.03;;;14.00;99.90;;;;;;5073298;28;20442;-78
2023/03/19 08:52:19;;;;;;;8.07;4.00;;;14.00;99.90;;;;;;5073766;28;20446;-76
2023/03/19 08:54:46;;;;;;;8.03;4.03;;;14.20;99.90;;;;;;5073520;28;20451;-76
2023/03/19 08:57:13;;;;;;;8.93;4.70;;;14.30;99.90;;;;;;5073983;28;20474;-77
2023/03/19 08:59:40;;;;;;;7.70;4.50;;;14.50;99.90;;;;;;5073700;28;20481;-77
2023/03/19 09:02:07;;;;;;;12.43;5.40;;;14.70;99.90;;;;;;5073483;28;20490;-78
2023/03/19 09:04:37;;;;;;;8.57;3.87;;;15.00;99.90;;;;;;5073719;28;20447;-77
2023/03/19 09:07:04;;;;;;;8.87;3.57;;;15.10;99.90;;;;;;5074287;28;20509;-77
2023/03/19 09:09:40;;;;;;;7.00;3.80;;;15.50;99.90;;;;;;5072717;28;20477;-83
2023/03/19 09:12:07;;;;;;;7.70;3.73;;;15.90;99.80;;;;;;5070522;28;20453;-77
2023/03/19 09:14:34;;;;;;;7.77;3.37;;;16.30;97.90;;;;;;5050151;28;20545;-77
2023/03/19 09:17:01;;;;;;;5.87;3.27;;;16.00;96.80;;;;;;5063357;28;20470;-77
2023/03/19 09:19:28;;;;;;;7.97;3.20;;;15.40;97.60;;;;;;5073456;28;20483;-77
2023/03/19 09:21:57;;;;;;;8.20;3.17;;;15.20;98.70;;;;;;5068836;28;20453;-77
2023/03/19 09:24:25;;;;;;;6.47;3.83;;;15.10;99.70;;;;;;5065657;28;20492;-76
2023/03/19 09:26:53;;;;;;;7.67;3.10;;;15.00;98.80;;;;;;5073647;28;20460;-77
2023/03/19 09:29:20;;;;;;;7.10;2.90;;;15.20;99.10;;;;;;5073710;28;20504;-77
2023/03/19 09:31:47;;;;;;;5.70;2.90;;;15.70;99.20;;;;;;5072314;28;20521;-76
2023/03/19 09:34:15;;;;;;;7.10;2.83;;;15.80;96.80;;;;;;5065228;28;20452;-76
2023/03/19 09:36:42;;;;;;;5.83;2.57;;;16.20;96.70;;;;;;5072592;28;20474;-77
2023/03/19 09:39:09;;;;;;;9.57;3.30;;;16.90;95.70;;;;;;5065972;28;20479;-76
2023/03/19 09:41:46;;;;;;;5.37;2.33;;;17.10;93.90;;;;;;5065133;28;20457;-76
2023/03/19 09:44:38;;;;;;;5.20;2.67;;;17.50;93.20;;;;;;5073237;28;20482;-76
2023/03/19 09:47:27;;;;;;;7.10;2.43;;;17.40;92.60;;;;;;5072438;28;22324;-76
2023/03/19 09:49:57;;;;;;;6.70;3.00;;;17.50;91.70;;;;;;5071891;28;20488;-76
2023/03/19 09:52:42;;;;;;;5.40;2.77;;;17.20;92.70;;;;;;5073018;28;20466;-76
2023/03/19 09:55:25;;;;;;;6.70;2.87;;;17.00;92.20;;;;;;5064908;28;20459;-75
2023/03/19 09:57:55;;;;;;;6.53;3.23;;;16.90;92.30;;;;;;5069375;28;21289;-78
2023/03/19 10:00:27;;;;;;;6.50;2.33;;;16.80;92.20;;;;;;5082619;28;20933;-76
2023/03/19 10:03:01;;;;;;;5.67;2.20;;;16.90;93.30;;;;;;5068551;28;20452;-76
2023/03/19 10:05:42;;;;;;;8.93;2.90;;;16.70;92.10;;;;;;5072774;28;20446;-76
2023/03/19 10:08:26;;;;;;;5.57;2.30;;;16.90;92.00;;;;;;5059105;28;20499;-76
2023/03/19 10:11:33;;;;;;;5.50;2.53;;;16.80;91.50;;;;;;5063930;28;20499;-76
2023/03/19 10:14:16;;;;;;;6.17;2.60;;;16.80;92.30;;;;;;4971357;28;20451;-76
2023/03/19 10:16:48;;;;;;;6.60;2.50;;;16.90;91.30;;;;;;4970335;28;20477;-76
2023/03/19 10:19:21;;;;;;;5.87;2.67;;;16.90;91.30;;;;;;5029761;28;20640;-76
2023/03/19 10:21:55;;;;;;;6.27;2.50;;;16.90;90.70;;;;;;5071117;28;20451;-77
2023/03/19 10:24:30;;;;;;;5.33;2.43;;;17.20;90.50;;;;;;5066629;28;20963;-77
2023/03/19 10:27:00;;;;;;;5.30;2.20;;;17.40;90.50;;;;;;5072301;28;20474;-76
2023/03/19 10:29:27;;;;;;;7.07;2.70;;;17.50;88.80;;;;;;5072058;28;20477;-78
2023/03/19 10:32:03;;;;;;;6.87;2.60;;;17.50;88.90;;;;;;5046644;28;20985;-77
2023/03/19 10:34:32;;;;;;;5.57;2.10;;;17.50;87.80;;;;;;5061144;28;20459;-76
2023/03/19 10:37:02;;;;;;;7.73;2.97;;;17.40;88.90;;;;;;5071862;28;20571;-77
2023/03/19 10:39:31;;;;;;;6.10;2.47;;;17.20;89.00;;;;;;5070785;28;20478;-79
2023/03/19 10:42:06;;;;;;;5.67;2.63;;;17.10;90.50;;;;;;5071148;28;20830;-76
2023/03/19 10:44:37;;;;;;;6.10;3.23;;;16.90;90.70;;;;;;5071859;28;20450;-77
2023/03/19 10:47:13;;;;;;;8.60;2.97;;;16.80;90.80;;;;;;5070898;28;20448;-76
2023/03/19 10:49:40;;;;;;;6.90;2.80;;;16.40;91.70;;;;;;5071153;28;20457;-76
2023/03/19 10:52:19;;;;;;;5.97;3.00;;;16.20;92.50;;;;;;5071463;28;20452;-76
2023/03/19 10:54:46;;;;;;;5.57;2.70;;;16.00;93.10;;;;;;5071730;28;20458;-77
2023/03/19 10:57:24;;;;;;;9.23;2.80;;;16.00;93.50;;;;;;5065059;28;20479;-77
2023/03/19 11:00:40;;;;;;;5.27;2.60;;;16.10;93.50;;;;;;5071759;28;20650;-77
2023/03/19 11:03:29;;;;;;;6.10;2.80;;;16.30;94.10;;;;;;5048841;28;20879;-77
2023/03/19 11:06:35;;;;;;;6.30;2.70;;;16.40;91.50;;;;;;5063380;28;20542;-77
2023/03/19 11:09:12;;;;;;;6.97;2.53;;;16.90;92.80;;;;;;5059005;28;20554;-77
2023/03/19 11:11:43;;;;;;;4.67;2.00;;;17.00;90.80;;;;;;5070373;28;20838;-76
2023/03/19 11:14:15;;;;;;;6.10;3.10;;;17.00;89.70;;;;;;5071223;28;20537;-76
2023/03/19 11:16:51;;;;;;;6.57;3.33;;;16.70;90.40;;;;;;5069762;28;20456;-76
2023/03/19 11:19:23;;;;;;;6.20;2.50;;;16.70;90.90;;;;;;5064493;28;20552;-76
2023/03/19 11:22:09;;;;;;;5.17;2.00;;;16.80;90.70;;;;;;5071478;28;20461;-76
2023/03/19 11:24:38;;;;;;;5.40;2.30;;;16.80;89.70;;;;;;5064267;28;20485;-76
2023/03/19 11:27:05;;;;;;;6.17;2.20;;;16.90;91.40;;;;;;5064595;28;20478;-76
2023/03/19 11:29:37;;;;;;;7.07;2.03;;;16.70;91.60;;;;;;5073526;28;20469;-77
2023/03/19 11:32:19;;;;;;;5.93;1.83;;;16.30;92.80;;;;;;5081087;28;20450;-76
2023/03/19 11:34:57;;;;;;;4.93;1.90;;;16.00;92.50;;;;;;5078074;28;20449;-76
2023/03/19 11:37:33;;;;;;;6.43;3.40;;;15.70;91.90;;;;;;5071640;28;20457;-76
2023/03/19 11:40:12;;;;;;;7.47;3.90;;;15.60;93.30;;;;;;5052846;28;20463;-77
2023/03/19 11:43:00;;;;;;;8.10;3.90;;;15.80;94.90;;;;;;5069971;28;20449;-76
2023/03/19 11:45:32;;;;;;;7.60;3.70;;;15.80;94.50;;;;;;5069774;28;20458;-77
2023/03/19 11:48:12;;;;;;;6.70;3.90;;;15.80;94.70;;;;;;5069208;28;20523;-77
2023/03/19 11:50:50;;;;;;;10.73;4.30;;;15.60;94.70;;;;;;5071705;28;20483;-76
2023/03/19 11:53:24;;;;;;;9.70;4.70;;;15.40;96.40;;;;;;5070888;28;20969;-76
2023/03/19 11:56:00;;;;;;;9.00;4.00;;;15.30;97.30;;;;;;5071066;28;20459;-77
2023/03/19 11:58:48;;;;;;;14.33;4.27;;;14.90;96.20;;;;;;5073698;28;20473;-76
2023/03/19 12:01:30;;;;;;;10.83;5.00;;;14.80;98.20;;;;;;5073964;28;20958;-76
2023/03/19 12:04:36;;;;;;;6.40;3.50;;;14.50;98.80;;;;;;5074171;28;20460;-76
2023/03/19 12:07:13;;;;;;;7.10;3.97;;;14.30;97.30;;;;;;5023099;28;20519;-77
2023/03/19 12:09:47;;;;;;;5.73;2.03;;;14.30;96.80;;;;;;5074676;28;20458;-76
2023/03/19 12:12:23;;;;;;;4.93;2.00;;;14.30;95.50;;;;;;5073688;28;20538;-76
2023/03/19 12:15:07;;;;;;;4.83;2.00;;;14.30;96.30;;;;;;5072917;28;20447;-76
2023/03/19 12:17:46;;;;;;;8.90;3.03;;;14.20;99.40;;;;;;5070819;28;20447;-77
2023/03/19 12:20:29;;;;;;;9.40;3.50;;;13.10;99.90;;;;;;5055453;28;20549;-76
2023/03/19 12:23:07;;;;;;;8.23;4.00;;;12.60;99.90;;;;;;5074078;28;20454;-76
2023/03/19 12:25:44;;;;;;;6.63;3.83;;;12.30;99.90;;;;;;5074279;28;20457;-76
2023/03/19 12:28:18;;;;;;;7.20;5.27;;;12.10;99.90;;;;;;5074799;28;20481;-76
2023/03/19 12:30:56;;;;;;;12.30;5.63;;;12.10;99.90;;;;;;5074323;28;20451;-76
2023/03/19 12:33:35;;;;;;;8.20;5.70;;;12.00;99.90;;;;;;5070417;28;21047;-76
2023/03/19 12:36:07;;;;;;;12.47;11.17;;;12.00;99.90;;;;;;5065749;28;20537;-76
2023/03/19 12:38:40;;;;;;;61.23;58.60;;;12.10;99.90;;;;;;5074843;28;20853;-76
2023/03/19 12:41:11;;;;;;;121.17;116.73;;;12.30;99.90;;;;;;5080830;28;20454;-76
2023/03/19 12:43:48;;;;;;;138.90;134.00;;;12.50;99.90;;;;;;5073855;28;20970;-76
2023/03/19 12:46:19;;;;;;;274.63;265.10;;;12.80;99.90;;;;;;5074408;28;20450;-76
2023/03/19 12:48:51;;;;;;;319.80;308.40;;;13.10;99.90;;;;;;5077364;28;20477;-76
2023/03/19 12:51:21;;;;;;;177.37;170.87;;;13.40;99.90;;;;;;5067703;28;20545;-76
2023/03/19 12:53:56;;;;;;;58.60;56.10;;;13.50;99.90;;;;;;5069419;28;20454;-76
2023/03/19 12:56:29;;;;;;;17.23;16.13;;;13.60;99.90;;;;;;5066088;28;20811;-76
2023/03/19 12:59:02;;;;;;;8.20;5.77;;;13.50;99.90;;;;;;5069879;28;20561;-76
2023/03/19 13:01:32;;;;;;;7.63;6.87;;;13.30;99.90;;;;;;5072440;28;20541;-76
2023/03/19 13:04:06;;;;;;;24.30;22.90;;;13.30;99.90;;;;;;5073681;28;20450;-76